Terminal Aerodrome Forecast
Issued by NWS Glasgow, MT

Home | Current Version | Previous Version | Text Only | Print | Product List | Glossary On
Versions: 1 2 3 4 5 6 7 8 9 10 11 12 13 14 15 16 17
000
FTUS45 KGGW 041100 RRA
TAFGGW
TAF
KGGW 041145Z 0412/0512 11009KT 6SM HZ FEW250
     FM041800 29010KT P6SM SCT150
     FM050000 33014KT P6SM VCTS SCT100CB
     FM050500 01010KT P6SM VCSH BKN045=

USA.gov is the U.S. government's official web portal to all federal, state and local government web resources and services.